Terminal Aerodrome Forecast
Issued by NWS

Home | Current Version | Previous Version | Text Only | Print | Product List | Glossary On
Versions: 1 2 3 4 5 6 7 8 9 10 11 12 13 14 15 16 17 18 19 20 21 22 23
000
FTUS41 KILN 181100 RRA
TAFLUK
TAF
KLUK 181153Z 1812/1912 30005KT P6SM OVC025
     FM181800 30005KT P6SM SCT030 OVC150
     FM182200 29004KT P6SM OVC060
     FM190100 00000KT P6SM OVC050=

USA.gov is the U.S. government's official web portal to all federal, state and local government web resources and services.